Terminal Aerodrome Forecast
Issued by NWS Sioux Falls, SD

Home | Current Version | Previous Version | Graphics & Text | Print | Product List | Glossary On
Versions: 1 2 3 4 5 6 7 8 9 10 11 12 13 14 15 16
422
FTUS43 KFSD 231729
TAFFSD
TAF
KFSD 231729Z 2318/2418 VRB03KT P6SM OVC008
     FM232000 12006KT P6SM OVC015
     FM240200 13010KT P6SM OVC025
     FM241100 11009KT 3SM -SN OVC008
     FM241400 09014KT 1 1/2SM -SN OVC003=

USA.gov is the U.S. government's official web portal to all federal, state and local government web resources and services.